Time;durP1;ratioP1;P1;durP2;ratioP2;P2;SDS_P1;SDS_P2;PMS_P1;PMS_P2;Temp;Humidity;BMP_temperature;BMP_pressure;BME280_temperature;BME280_humidity;BME280_pressure;Samples;Min_cycle;Max_cycle;Signal;HPM_P1;HPM_P2
2021/04/26 00:01:40;;;;;;;5.77;2.53;;;6.80;69.40;;;;;;5068935;28;20113;-73
2021/04/26 00:04:06;;;;;;;11.30;3.60;;;6.80;70.10;;;;;;5042172;28;20107;-74
2021/04/26 00:06:31;;;;;;;6.00;3.60;;;6.80;70.20;;;;;;5047995;28;20029;-74
2021/04/26 00:08:57;;;;;;;9.70;2.90;;;6.70;70.60;;;;;;5061458;28;20033;-76
2021/04/26 00:11:23;;;;;;;6.40;3.10;;;6.70;70.40;;;;;;5034662;28;20040;-78
2021/04/26 00:13:48;;;;;;;7.70;3.07;;;6.70;70.80;;;;;;5051433;28;20131;-74
2021/04/26 00:16:14;;;;;;;9.10;3.67;;;6.70;70.40;;;;;;5067724;28;20513;-74
2021/04/26 00:18:40;;;;;;;8.70;3.10;;;6.60;70.90;;;;;;5043607;28;20040;-76
2021/04/26 00:21:06;;;;;;;8.17;3.23;;;6.70;71.30;;;;;;5068094;28;20547;-74
2021/04/26 00:23:31;;;;;;;5.70;2.77;;;6.60;71.10;;;;;;5067583;28;20036;-74
2021/04/26 00:25:57;;;;;;;9.27;3.37;;;6.50;71.00;;;;;;5066586;28;20024;-74
2021/04/26 00:28:23;;;;;;;10.10;3.20;;;6.50;71.40;;;;;;5068945;28;20033;-74
2021/04/26 00:30:49;;;;;;;7.77;3.00;;;6.50;71.40;;;;;;5070246;28;20032;-74
2021/04/26 00:33:14;;;;;;;6.13;2.77;;;6.40;71.10;;;;;;5059694;28;20627;-74
2021/04/26 00:35:40;;;;;;;10.17;3.27;;;6.30;70.80;;;;;;5068622;28;20112;-75
2021/04/26 00:38:06;;;;;;;8.97;3.03;;;6.20;71.20;;;;;;5066701;28;20054;-75
2021/04/26 00:40:31;;;;;;;6.77;3.33;;;6.10;72.00;;;;;;5051464;28;20071;-75
2021/04/26 00:42:57;;;;;;;8.63;3.07;;;6.10;72.10;;;;;;5046158;28;20461;-75
2021/04/26 00:45:24;;;;;;;7.47;3.03;;;6.10;71.80;;;;;;5052332;28;20564;-75
2021/04/26 00:47:50;;;;;;;9.93;3.00;;;6.10;71.90;;;;;;5068846;28;20066;-74
2021/04/26 00:50:19;;;;;;;5.63;2.60;;;6.00;71.70;;;;;;5070380;28;20034;-75
2021/04/26 00:52:45;;;;;;;7.57;3.03;;;5.90;71.80;;;;;;5068566;28;20037;-75
2021/04/26 00:55:12;;;;;;;8.23;3.10;;;5.90;72.10;;;;;;5035433;28;20028;-75
2021/04/26 00:57:38;;;;;;;9.27;3.70;;;5.80;72.70;;;;;;5048842;28;20461;-74
2021/04/26 01:00:07;;;;;;;9.83;2.87;;;5.80;72.60;;;;;;5069096;28;20056;-74
2021/04/26 01:02:32;;;;;;;11.90;3.50;;;5.80;72.60;;;;;;5072152;28;20059;-78
2021/04/26 01:05:00;;;;;;;8.87;3.57;;;5.70;72.60;;;;;;5070976;28;20052;-75
2021/04/26 01:07:27;;;;;;;8.23;2.87;;;5.70;72.90;;;;;;5068612;28;20036;-75
2021/04/26 01:09:53;;;;;;;10.60;3.50;;;5.70;73.40;;;;;;5067764;28;20105;-77
2021/04/26 01:13:03;;;;;;;11.67;3.57;;;5.70;73.50;;;;;;5070345;28;20551;-75
2021/04/26 01:15:54;;;;;;;7.77;3.23;;;5.70;72.50;;;;;;5048543;28;20077;-75
2021/04/26 01:18:25;;;;;;;9.93;3.23;;;5.70;73.10;;;;;;5064495;28;20082;-75
2021/04/26 01:21:06;;;;;;;11.47;3.53;;;5.60;72.40;;;;;;5054517;28;20024;-76
2021/04/26 01:24:09;;;;;;;8.40;2.70;;;5.40;72.50;;;;;;5071075;28;20032;-78
2021/04/26 01:27:09;;;;;;;7.60;2.83;;;5.20;73.30;;;;;;5038897;28;20037;-78
2021/04/26 01:29:34;;;;;;;8.93;2.70;;;5.40;72.90;;;;;;5034718;28;20068;-78
2021/04/26 01:32:09;;;;;;;7.90;2.70;;;5.20;72.50;;;;;;5055960;28;20463;-75
2021/04/26 01:34:38;;;;;;;12.13;3.03;;;5.20;73.50;;;;;;5070771;28;20040;-79
2021/04/26 01:37:04;;;;;;;6.83;2.27;;;5.10;73.10;;;;;;5070979;28;20029;-75
2021/04/26 01:39:31;;;;;;;5.73;2.43;;;5.00;73.10;;;;;;5045679;28;20036;-75
2021/04/26 01:41:58;;;;;;;8.27;2.37;;;4.90;72.90;;;;;;5069615;28;20593;-75
2021/04/26 01:44:24;;;;;;;6.07;2.23;;;4.70;72.90;;;;;;5053139;28;20154;-74
2021/04/26 01:46:51;;;;;;;6.10;2.17;;;4.60;73.40;;;;;;5060829;28;20093;-75
2021/04/26 01:49:22;;;;;;;5.17;2.30;;;4.40;73.70;;;;;;5053617;28;20074;-75
2021/04/26 01:51:49;;;;;;;7.37;2.10;;;4.40;74.10;;;;;;5065548;28;20036;-75
2021/04/26 01:54:15;;;;;;;6.40;1.90;;;4.40;74.40;;;;;;5071853;28;20032;-74
2021/04/26 01:56:42;;;;;;;6.33;2.37;;;4.40;74.20;;;;;;5054183;28;20059;-76
2021/04/26 01:59:08;;;;;;;5.37;2.17;;;4.30;74.40;;;;;;5054665;28;20115;-75
2021/04/26 02:01:34;;;;;;;8.20;2.60;;;4.20;74.60;;;;;;5071083;28;20371;-76
2021/04/26 02:04:02;;;;;;;7.03;2.50;;;4.10;74.80;;;;;;5069270;28;20031;-75
2021/04/26 02:06:30;;;;;;;8.10;2.50;;;4.10;75.20;;;;;;5072786;28;20024;-75
2021/04/26 02:08:56;;;;;;;6.77;1.87;;;4.10;75.00;;;;;;5041123;28;20035;-75
2021/04/26 02:11:23;;;;;;;7.00;2.00;;;4.00;75.20;;;;;;5067830;28;20465;-75
2021/04/26 02:13:49;;;;;;;6.60;2.40;;;4.10;75.20;;;;;;5056845;28;20039;-74
2021/04/26 02:16:15;;;;;;;8.87;2.90;;;4.00;75.20;;;;;;5034387;28;20083;-74
2021/04/26 02:18:41;;;;;;;6.40;2.23;;;4.00;75.40;;;;;;5065407;28;20037;-77
2021/04/26 02:21:07;;;;;;;8.30;2.13;;;3.90;75.30;;;;;;5068050;28;20386;-74
2021/04/26 02:23:33;;;;;;;8.33;2.77;;;3.90;75.70;;;;;;5071003;28;20470;-74
2021/04/26 02:25:59;;;;;;;8.23;2.70;;;3.90;75.70;;;;;;5068653;28;20078;-76
2021/04/26 02:28:25;;;;;;;7.07;2.30;;;4.00;75.70;;;;;;5061150;28;20024;-74
2021/04/26 02:30:56;;;;;;;5.67;2.23;;;3.90;75.70;;;;;;5064857;28;20035;-74
2021/04/26 02:33:32;;;;;;;5.07;2.23;;;3.90;75.80;;;;;;5070072;28;20111;-74
2021/04/26 02:36:14;;;;;;;4.40;2.50;;;4.00;76.40;;;;;;5070243;28;20094;-74
2021/04/26 02:38:45;;;;;;;6.37;2.80;;;4.20;76.40;;;;;;5069666;28;20036;-75
2021/04/26 02:41:15;;;;;;;5.23;2.20;;;4.20;76.00;;;;;;5071834;28;20025;-75
2021/04/26 02:43:52;;;;;;;4.50;2.10;;;4.30;76.50;;;;;;5067368;28;20055;-75
2021/04/26 02:46:22;;;;;;;4.93;2.10;;;4.40;76.20;;;;;;5053914;28;20056;-75
2021/04/26 02:48:49;;;;;;;10.90;2.33;;;4.60;76.30;;;;;;5053991;28;20051;-78
2021/04/26 02:51:15;;;;;;;7.53;2.27;;;4.60;76.00;;;;;;5050083;28;20036;-76
2021/04/26 02:53:42;;;;;;;7.47;2.20;;;4.50;75.60;;;;;;5053633;28;20536;-75
2021/04/26 02:56:10;;;;;;;7.80;2.40;;;4.30;75.00;;;;;;5052765;28;20082;-75
2021/04/26 02:58:37;;;;;;;5.10;1.77;;;4.30;75.60;;;;;;5069806;28;20520;-76
2021/04/26 03:01:07;;;;;;;6.50;2.10;;;4.30;75.50;;;;;;5068830;28;20072;-75
2021/04/26 03:03:34;;;;;;;6.10;2.47;;;4.30;75.60;;;;;;5064088;28;20040;-75
2021/04/26 03:06:01;;;;;;;8.20;2.13;;;4.30;75.50;;;;;;5068363;28;20067;-75
2021/04/26 03:08:29;;;;;;;6.03;2.30;;;4.10;75.10;;;;;;5061407;28;20102;-76
2021/04/26 03:10:56;;;;;;;5.03;2.10;;;4.10;76.00;;;;;;5052390;28;20024;-75
2021/04/26 03:13:22;;;;;;;6.17;2.33;;;4.20;76.10;;;;;;5059348;28;20028;-75
2021/04/26 03:15:48;;;;;;;5.50;2.30;;;4.20;75.70;;;;;;5071166;28;20094;-77
2021/04/26 03:18:15;;;;;;;4.53;2.10;;;4.10;76.10;;;;;;5059351;28;20037;-74
2021/04/26 03:20:41;;;;;;;9.63;2.33;;;4.20;76.30;;;;;;5052350;28;20033;-74
2021/04/26 03:23:08;;;;;;;8.00;2.80;;;4.00;75.40;;;;;;5069242;28;20493;-74
2021/04/26 03:25:35;;;;;;;6.03;2.33;;;3.90;75.40;;;;;;5058386;28;20040;-74
2021/04/26 03:28:01;;;;;;;5.87;2.00;;;3.80;75.70;;;;;;5066304;28;20029;-75
2021/04/26 03:30:28;;;;;;;7.87;2.60;;;3.70;76.40;;;;;;5056924;28;20037;-74
2021/04/26 03:32:55;;;;;;;5.73;2.70;;;3.70;76.30;;;;;;5052121;28;20894;-78
2021/04/26 03:35:22;;;;;;;8.23;3.13;;;3.60;76.30;;;;;;5062986;28;20043;-74
2021/04/26 03:37:51;;;;;;;7.30;2.70;;;3.60;76.40;;;;;;5051900;28;20051;-74
2021/04/26 03:40:25;;;;;;;5.73;2.50;;;3.50;76.40;;;;;;5055775;28;20024;-73
2021/04/26 03:42:57;;;;;;;8.07;2.93;;;3.50;76.50;;;;;;5063216;28;20122;-77
2021/04/26 03:45:23;;;;;;;8.37;2.93;;;3.30;76.30;;;;;;5053486;28;20036;-76
2021/04/26 03:47:49;;;;;;;6.47;2.20;;;3.30;77.00;;;;;;5068977;28;20038;-75
2021/04/26 03:50:15;;;;;;;5.97;2.50;;;3.40;77.20;;;;;;5068464;28;20596;-75
2021/04/26 03:52:42;;;;;;;8.23;3.10;;;3.50;77.00;;;;;;5065787;28;20502;-75
2021/04/26 03:55:10;;;;;;;8.00;2.87;;;3.40;76.60;;;;;;5068674;28;20054;-74
2021/04/26 03:57:35;;;;;;;4.70;2.70;;;3.30;76.90;;;;;;5069575;28;20104;-74
2021/04/26 04:00:02;;;;;;;7.37;2.70;;;3.30;77.30;;;;;;5061958;28;20136;-75
2021/04/26 04:02:28;;;;;;;6.20;2.70;;;3.30;77.50;;;;;;5067482;28;20051;-75
2021/04/26 04:04:55;;;;;;;7.37;3.07;;;3.20;77.10;;;;;;5069729;28;20037;-76
2021/04/26 04:07:21;;;;;;;9.77;3.17;;;3.30;77.70;;;;;;5063418;28;20032;-75
2021/04/26 04:09:47;;;;;;;7.20;2.47;;;3.10;77.10;;;;;;5070420;28;20065;-75
2021/04/26 04:12:13;;;;;;;6.47;3.10;;;3.20;77.70;;;;;;5067545;28;20063;-74
2021/04/26 04:14:38;;;;;;;7.60;3.27;;;3.20;77.40;;;;;;5068945;28;20025;-74
2021/04/26 04:17:04;;;;;;;5.90;2.37;;;3.10;77.20;;;;;;5048526;28;20482;-75
2021/04/26 04:19:30;;;;;;;7.60;2.97;;;3.20;77.30;;;;;;5069349;28;20036;-75
2021/04/26 04:21:56;;;;;;;8.43;3.77;;;3.10;77.10;;;;;;5017003;28;20029;-75
2021/04/26 04:24:21;;;;;;;7.03;3.30;;;3.20;77.60;;;;;;5033134;28;20029;-74
2021/04/26 04:26:47;;;;;;;8.33;2.83;;;3.10;77.30;;;;;;5024450;28;20474;-74
2021/04/26 04:29:13;;;;;;;11.00;3.20;;;3.10;77.40;;;;;;5056556;28;20039;-75
2021/04/26 04:31:39;;;;;;;9.27;3.70;;;3.10;77.40;;;;;;5062976;28;20032;-74
2021/04/26 04:34:04;;;;;;;7.83;3.43;;;3.10;77.60;;;;;;5052023;28;20491;-76
2021/04/26 04:36:30;;;;;;;8.50;5.07;;;3.10;77.30;;;;;;5073167;28;20555;-75
2021/04/26 04:38:56;;;;;;;7.60;4.00;;;3.10;77.30;;;;;;5070852;28;20382;-76
2021/04/26 04:41:21;;;;;;;9.10;4.60;;;3.20;77.30;;;;;;5045318;28;20701;-76
2021/04/26 04:43:47;;;;;;;8.80;4.70;;;3.30;77.00;;;;;;5061591;28;20436;-75
2021/04/26 04:46:13;;;;;;;12.33;6.83;;;3.70;76.60;;;;;;5023949;28;20049;-76
2021/04/26 04:48:38;;;;;;;8.50;4.37;;;4.50;75.10;;;;;;5067778;28;20059;-75
2021/04/26 04:51:04;;;;;;;9.30;4.77;;;5.30;72.70;;;;;;5035372;28;20040;-79
2021/04/26 04:53:30;;;;;;;9.77;4.30;;;5.80;70.00;;;;;;5072046;28;20033;-75
2021/04/26 04:55:56;;;;;;;9.37;4.00;;;6.10;67.70;;;;;;5074059;28;20028;-74
2021/04/26 04:58:21;;;;;;;9.83;4.30;;;6.50;67.40;;;;;;5058080;28;20107;-75
2021/04/26 05:00:47;;;;;;;7.93;3.77;;;7.00;66.70;;;;;;5071283;28;20060;-76
2021/04/26 05:03:13;;;;;;;6.33;3.50;;;7.40;64.60;;;;;;5071836;28;20440;-77
2021/04/26 05:05:38;;;;;;;5.83;3.10;;;7.70;63.10;;;;;;5068515;28;20044;-75
2021/04/26 05:08:04;;;;;;;10.73;4.33;;;8.10;62.00;;;;;;5027597;28;20036;-77
2021/04/26 05:10:30;;;;;;;7.67;3.37;;;8.40;60.80;;;;;;5047799;28;20036;-74
2021/04/26 05:12:56;;;;;;;7.33;4.47;;;8.60;59.80;;;;;;5072436;28;20399;-76
2021/04/26 05:15:21;;;;;;;7.03;3.60;;;8.80;60.00;;;;;;5068792;28;20393;-75
2021/04/26 05:17:47;;;;;;;6.37;3.20;;;9.10;58.00;;;;;;5070112;28;20037;-75
2021/04/26 05:20:13;;;;;;;9.40;4.83;;;9.60;57.10;;;;;;5072503;28;20028;-76
2021/04/26 05:22:39;;;;;;;5.97;2.40;;;9.90;57.00;;;;;;5053892;28;20024;-74
2021/04/26 05:25:06;;;;;;;5.83;2.83;;;10.40;54.20;;;;;;5073741;28;20039;-75
2021/04/26 05:27:32;;;;;;;7.63;2.90;;;10.80;52.70;;;;;;5069821;28;20044;-74
2021/04/26 05:29:58;;;;;;;4.50;2.67;;;10.80;52.40;;;;;;5070317;28;20386;-75
2021/04/26 05:32:23;;;;;;;10.17;2.30;;;11.10;51.80;;;;;;5069590;28;20043;-74
2021/04/26 05:34:49;;;;;;;8.97;3.60;;;11.10;51.00;;;;;;5071698;28;20029;-74
2021/04/26 05:37:14;;;;;;;7.40;3.97;;;11.00;52.00;;;;;;5049160;28;20039;-75
2021/04/26 05:39:40;;;;;;;4.93;3.00;;;11.50;52.00;;;;;;5025238;28;20111;-73
2021/04/26 05:42:07;;;;;;;6.90;2.63;;;11.90;50.50;;;;;;5065771;28;20028;-75
2021/04/26 05:44:33;;;;;;;5.10;2.10;;;12.40;48.30;;;;;;5070010;28;20028;-75
2021/04/26 05:46:59;;;;;;;4.97;2.30;;;12.50;46.80;;;;;;5053491;28;20039;-75
2021/04/26 05:49:24;;;;;;;5.93;2.47;;;12.30;48.10;;;;;;5060086;28;20055;-74
2021/04/26 05:51:50;;;;;;;6.87;2.70;;;12.50;47.20;;;;;;5059021;28;20067;-74
2021/04/26 05:54:15;;;;;;;5.57;3.13;;;12.80;47.50;;;;;;5072931;28;20064;-76
2021/04/26 05:56:41;;;;;;;10.27;3.00;;;12.80;47.20;;;;;;5061687;28;20036;-76
2021/04/26 05:59:07;;;;;;;4.93;2.00;;;13.20;46.40;;;;;;5048913;28;20394;-74
2021/04/26 06:01:32;;;;;;;9.17;2.10;;;13.50;45.00;;;;;;5034837;28;20053;-75
2021/04/26 06:03:58;;;;;;;6.77;2.30;;;13.40;44.30;;;;;;5054577;28;20032;-74
2021/04/26 06:06:26;;;;;;;4.60;2.77;;;13.10;44.50;;;;;;5064311;28;20132;-74
2021/04/26 06:08:51;;;;;;;7.07;3.00;;;13.20;46.20;;;;;;5070342;28;20079;-75
2021/04/26 06:11:17;;;;;;;6.47;2.40;;;13.70;45.10;;;;;;5053835;28;20040;-78
2021/04/26 06:13:43;;;;;;;5.43;3.30;;;13.30;44.00;;;;;;5067791;28;20045;-75
2021/04/26 06:16:09;;;;;;;9.43;4.33;;;13.00;46.50;;;;;;5069709;28;20048;-75
2021/04/26 06:18:34;;;;;;;8.20;2.67;;;13.30;45.80;;;;;;5051450;28;20037;-75
2021/04/26 06:21:00;;;;;;;5.07;3.10;;;12.90;44.90;;;;;;5032233;28;20035;-76
2021/04/26 06:23:26;;;;;;;6.10;2.30;;;12.90;45.50;;;;;;5063007;28;20497;-76
2021/04/26 06:25:51;;;;;;;7.67;2.07;;;12.60;45.30;;;;;;5017685;28;20459;-76
2021/04/26 06:28:17;;;;;;;8.67;3.43;;;12.30;45.60;;;;;;5043956;28;20044;-79
2021/04/26 06:30:45;;;;;;;7.40;4.00;;;12.80;47.00;;;;;;5040819;28;20040;-75
2021/04/26 06:33:15;;;;;;;12.53;8.23;;;13.10;46.30;;;;;;5069926;28;20423;-75
2021/04/26 06:35:45;;;;;;;7.80;4.77;;;13.80;45.60;;;;;;5060220;28;20028;-75
2021/04/26 06:38:11;;;;;;;10.65;4.13;;;14.20;43.80;;;;;;5062129;28;20041;-74
2021/04/26 06:40:38;;;;;;;9.05;3.45;;;14.60;42.50;;;;;;5069191;28;20199;-73
2021/04/26 06:43:04;;;;;;;8.80;2.88;;;14.80;42.10;;;;;;5045588;28;20040;-74
2021/04/26 06:45:30;;;;;;;7.85;2.80;;;14.70;41.80;;;;;;5017935;28;20040;-74
2021/04/26 06:47:56;;;;;;;10.75;4.32;;;14.60;41.60;;;;;;5057968;28;20393;-74
2021/04/26 06:50:23;;;;;;;6.78;2.83;;;14.30;42.40;;;;;;5042387;28;20497;-78
2021/04/26 06:52:50;;;;;;;5.93;3.53;;;14.20;41.70;;;;;;5061634;28;20032;-74
2021/04/26 06:55:17;;;;;;;5.88;3.13;;;14.00;42.10;;;;;;5059610;28;20109;-75
2021/04/26 06:57:43;;;;;;;6.75;2.63;;;13.80;42.00;;;;;;5039647;28;20028;-76
2021/04/26 07:00:10;;;;;;;7.95;2.95;;;13.60;42.30;;;;;;5057160;28;20092;-75
2021/04/26 07:02:36;;;;;;;7.15;2.60;;;13.40;42.90;;;;;;5057717;28;20524;-74
2021/04/26 07:05:03;;;;;;;4.22;2.80;;;13.30;42.90;;;;;;5054209;28;20201;-76
2021/04/26 07:07:29;;;;;;;8.93;4.13;;;13.60;43.10;;;;;;5035111;28;20114;-73
2021/04/26 07:09:55;;;;;;;7.32;4.07;;;14.00;42.70;;;;;;5037671;28;20047;-73
2021/04/26 07:12:21;;;;;;;8.63;3.40;;;14.40;42.10;;;;;;5053368;28;20028;-76
2021/04/26 07:14:47;;;;;;;7.82;4.50;;;15.00;41.00;;;;;;5054957;28;20040;-75
2021/04/26 07:17:12;;;;;;;5.72;3.35;;;15.50;40.70;;;;;;5053311;28;20091;-73
2021/04/26 07:19:38;;;;;;;11.32;4.80;;;15.70;39.10;;;;;;5036323;28;20025;-74
2021/04/26 07:22:04;;;;;;;6.63;3.58;;;15.70;39.60;;;;;;5036866;28;20126;-73
2021/04/26 07:24:30;;;;;;;9.23;3.85;;;15.60;39.40;;;;;;5052211;28;20406;-76
2021/04/26 07:26:56;;;;;;;8.77;4.25;;;15.40;39.00;;;;;;5051676;28;20043;-75
2021/04/26 07:29:22;;;;;;;8.60;5.68;;;15.50;39.80;;;;;;5051952;28;20491;-73
2021/04/26 07:31:47;;;;;;;10.98;6.70;;;16.10;39.80;;;;;;5057465;28;20211;-77
2021/04/26 07:34:13;;;;;;;5.15;2.63;;;16.70;38.50;;;;;;5068060;28;20408;-75
2021/04/26 07:36:39;;;;;;;12.52;7.50;;;17.00;36.20;;;;;;5053692;28;20025;-75
2021/04/26 07:39:06;;;;;;;5.07;2.58;;;16.80;37.50;;;;;;5064769;28;20051;-73
2021/04/26 07:41:32;;;;;;;6.53;2.72;;;16.90;36.10;;;;;;5063062;28;20065;-75
2021/04/26 07:43:57;;;;;;;3.50;2.33;;;16.80;36.10;;;;;;5050857;28;20428;-74
2021/04/26 07:46:23;;;;;;;9.93;3.63;;;16.30;36.50;;;;;;5054917;28;20098;-73
2021/04/26 07:48:49;;;;;;;7.70;3.58;;;16.80;37.30;;;;;;5055580;28;20024;-75
2021/04/26 07:51:15;;;;;;;5.70;3.00;;;16.90;36.00;;;;;;5049924;28;20024;-74
2021/04/26 07:53:40;;;;;;;3.35;2.40;;;17.30;35.90;;;;;;5062354;28;20134;-73
2021/04/26 07:56:06;;;;;;;9.25;3.33;;;17.10;35.00;;;;;;5069195;28;20074;-77
2021/04/26 07:58:32;;;;;;;12.68;7.00;;;16.70;36.00;;;;;;5042713;28;20104;-78
2021/04/26 08:00:58;;;;;;;7.43;3.25;;;17.30;37.80;;;;;;5045869;28;20048;-73
2021/04/26 08:03:24;;;;;;;25.63;12.48;;;18.30;34.60;;;;;;5042413;28;20032;-75
2021/04/26 08:05:50;;;;;;;12.23;5.60;;;19.00;36.00;;;;;;5044105;28;20033;-74
2021/04/26 08:08:15;;;;;;;11.23;6.43;;;19.30;32.70;;;;;;5038956;28;20104;-74
2021/04/26 08:10:41;;;;;;;3.50;2.22;;;19.20;33.30;;;;;;5048786;28;20144;-73
2021/04/26 08:13:07;;;;;;;5.70;2.13;;;18.60;30.70;;;;;;5050776;28;20072;-74
2021/04/26 08:15:33;;;;;;;8.45;5.50;;;18.60;31.80;;;;;;5049692;28;20040;-77
2021/04/26 08:17:59;;;;;;;5.10;2.40;;;18.90;33.60;;;;;;5029226;28;20029;-73
2021/04/26 08:20:24;;;;;;;6.97;3.60;;;18.80;31.20;;;;;;5041818;28;20483;-74
2021/04/26 08:22:50;;;;;;;6.85;3.38;;;18.60;32.40;;;;;;5026422;28;20033;-75
2021/04/26 08:25:16;;;;;;;6.15;2.70;;;18.70;33.10;;;;;;5047302;28;20396;-74
2021/04/26 08:27:41;;;;;;;4.50;2.70;;;19.10;32.70;;;;;;5041029;28;20488;-76
2021/04/26 08:30:08;;;;;;;3.67;2.03;;;19.20;31.70;;;;;;5037976;28;20412;-74
2021/04/26 08:32:35;;;;;;;4.80;1.60;;;19.60;31.50;;;;;;5026429;28;20041;-78
2021/04/26 08:35:00;;;;;;;4.75;2.40;;;19.90;30.30;;;;;;5037302;28;20029;-76
2021/04/26 08:37:26;;;;;;;5.80;1.73;;;19.60;29.00;;;;;;5045058;28;20037;-76
2021/04/26 08:39:52;;;;;;;6.57;1.85;;;19.10;29.60;;;;;;5041941;28;20506;-75
2021/04/26 08:42:19;;;;;;;4.00;1.85;;;19.30;28.90;;;;;;5046309;28;20021;-75
2021/04/26 08:44:45;;;;;;;4.70;2.80;;;19.00;29.20;;;;;;5053265;28;20041;-77
2021/04/26 08:47:11;;;;;;;3.88;2.38;;;19.80;30.00;;;;;;5041331;28;20043;-76
2021/04/26 08:49:36;;;;;;;2.40;1.13;;;20.40;28.40;;;;;;5048732;28;20044;-78
2021/04/26 08:52:03;;;;;;;9.75;6.15;;;20.30;26.80;;;;;;5042481;28;20029;-76
2021/04/26 08:54:29;;;;;;;4.00;1.90;;;19.70;28.90;;;;;;5040943;28;20096;-74
2021/04/26 08:56:54;;;;;;;3.90;1.35;;;20.00;27.80;;;;;;5042988;28;20033;-74
2021/04/26 08:59:20;;;;;;;6.47;3.60;;;19.20;27.70;;;;;;5022752;28;20067;-75
2021/04/26 09:01:48;;;;;;;4.15;1.58;;;18.10;28.40;;;;;;5020496;28;20108;-74
2021/04/26 09:04:14;;;;;;;3.97;2.55;;;17.90;28.30;;;;;;5024529;28;20033;-75
2021/04/26 09:06:54;;;;;;;3.50;1.30;;;18.00;28.60;;;;;;5023602;28;20087;-77
2021/04/26 09:09:54;;;;;;;4.85;1.88;;;17.90;29.00;;;;;;5028125;28;20439;-76
2021/04/26 09:12:23;;;;;;;4.70;1.77;;;17.70;29.10;;;;;;4990436;28;20060;-75
2021/04/26 09:14:52;;;;;;;4.85;1.50;;;17.70;29.20;;;;;;5019148;28;20471;-76
2021/04/26 09:17:34;;;;;;;6.30;3.80;;;17.90;29.00;;;;;;5020326;28;20135;-75
2021/04/26 09:20:20;;;;;;;7.38;5.57;;;17.90;30.30;;;;;;5027620;28;20124;-75
2021/04/26 09:22:47;;;;;;;7.70;4.20;;;19.10;30.50;;;;;;5029921;28;20029;-76
2021/04/26 09:25:25;;;;;;;4.18;1.25;;;19.70;28.70;;;;;;5031046;28;20060;-75
2021/04/26 09:27:53;;;;;;;4.07;1.45;;;20.00;27.10;;;;;;5027573;28;20030;-74
2021/04/26 09:30:42;;;;;;;4.50;1.80;;;19.60;27.40;;;;;;5020924;28;20030;-77
2021/04/26 09:33:29;;;;;;;5.93;1.52;;;18.60;27.30;;;;;;5028029;28;20084;-72
2021/04/26 09:36:15;;;;;;;7.47;3.50;;;17.50;28.60;;;;;;5031607;28;20475;-74
2021/04/26 09:38:49;;;;;;;4.20;2.22;;;17.10;30.00;;;;;;5030385;28;20071;-74
2021/04/26 09:41:24;;;;;;;3.28;1.42;;;18.00;29.10;;;;;;5031114;28;20080;-76
2021/04/26 09:44:04;;;;;;;4.88;1.90;;;18.50;28.60;;;;;;5028316;28;20025;-74
2021/04/26 09:46:56;;;;;;;28.35;4.25;;;17.90;29.10;;;;;;5031287;28;20498;-75
2021/04/26 09:49:27;;;;;;;2.83;1.55;;;17.80;29.50;;;;;;5008643;28;20081;-75
2021/04/26 09:51:55;;;;;;;4.28;2.00;;;18.10;28.70;;;;;;5028560;28;20487;-75
2021/04/26 09:54:42;;;;;;;4.28;1.38;;;18.60;29.10;;;;;;5031508;28;20033;-74
2021/04/26 09:57:08;;;;;;;4.57;1.45;;;18.90;28.20;;;;;;5030287;28;20093;-75
2021/04/26 09:59:34;;;;;;;3.45;1.50;;;18.90;28.00;;;;;;5013474;28;20391;-74
2021/04/26 10:02:00;;;;;;;3.25;1.40;;;18.40;27.80;;;;;;5046431;28;20379;-75
2021/04/26 10:04:26;;;;;;;3.03;1.63;;;18.20;28.60;;;;;;5038640;28;20141;-74
2021/04/26 10:06:52;;;;;;;5.80;1.98;;;18.00;28.70;;;;;;5043964;28;20566;-76
2021/04/26 10:09:20;;;;;;;4.15;1.40;;;18.40;28.90;;;;;;5048724;28;20041;-74
2021/04/26 10:11:46;;;;;;;5.20;1.55;;;18.50;28.00;;;;;;5047134;28;20060;-73
2021/04/26 10:14:18;;;;;;;4.47;1.73;;;18.10;28.30;;;;;;5050740;28;20037;-76
2021/04/26 10:17:09;;;;;;;2.22;1.30;;;18.10;28.30;;;;;;5032891;28;20132;-74
2021/04/26 10:19:43;;;;;;;3.65;1.50;;;18.10;28.80;;;;;;5049520;28;20031;-75
2021/04/26 10:22:09;;;;;;;2.90;1.50;;;17.40;28.60;;;;;;5045408;28;20083;-76
2021/04/26 10:24:54;;;;;;;3.22;1.30;;;17.00;29.40;;;;;;5049497;28;20037;-76
2021/04/26 10:27:33;;;;;;;3.17;1.30;;;17.30;29.20;;;;;;5050842;28;20063;-75
2021/04/26 10:30:00;;;;;;;3.38;1.25;;;17.30;29.20;;;;;;5047065;28;20021;-73
2021/04/26 10:32:26;;;;;;;3.63;1.17;;;17.40;29.10;;;;;;5046582;28;20051;-74
2021/04/26 10:34:56;;;;;;;1.98;1.10;;;17.90;29.40;;;;;;5049583;28;20029;-77
2021/04/26 10:37:27;;;;;;;3.30;1.40;;;18.10;28.80;;;;;;5047576;28;20032;-73
2021/04/26 10:39:58;;;;;;;5.35;1.83;;;18.50;28.10;;;;;;5037455;28;20025;-78
2021/04/26 10:42:34;;;;;;;4.85;1.73;;;17.80;28.20;;;;;;5046353;28;20031;-74
2021/04/26 10:45:02;;;;;;;5.95;1.63;;;17.50;29.20;;;;;;5047519;28;20029;-75
2021/04/26 10:47:31;;;;;;;6.07;1.98;;;18.10;29.30;;;;;;5046891;28;20055;-75
2021/04/26 10:50:00;;;;;;;3.88;1.42;;;18.80;29.70;;;;;;5049926;28;20025;-74
2021/04/26 10:52:29;;;;;;;5.90;1.65;;;19.60;28.20;;;;;;5048424;28;20028;-73
2021/04/26 10:54:55;;;;;;;6.15;1.90;;;19.10;27.30;;;;;;5046732;28;20032;-78
2021/04/26 10:57:41;;;;;;;5.07;1.20;;;18.90;29.00;;;;;;5032258;28;20493;-75
2021/04/26 11:00:32;;;;;;;5.45;1.60;;;19.00;28.30;;;;;;5050624;28;20033;-75
2021/04/26 11:03:25;;;;;;;3.70;1.60;;;18.70;28.00;;;;;;5060441;28;20035;-74
2021/04/26 11:05:51;;;;;;;;;;;18.40;29.30;;;;;;5050141;28;20120;-74
2021/04/26 11:08:35;;;;;;;4.10;1.90;;;18.30;27.70;;;;;;5044897;28;19908;-75
2021/04/26 11:11:28;;;;;;;2.88;1.75;;;18.20;27.90;;;;;;5051562;28;20427;-75
2021/04/26 11:13:53;;;;;;;3.35;1.27;;;18.20;28.60;;;;;;5061441;28;20405;-75
2021/04/26 11:16:22;;;;;;;4.07;1.55;;;17.50;28.80;;;;;;5057610;28;20074;-75
2021/04/26 11:18:54;;;;;;;3.08;1.20;;;17.20;29.30;;;;;;5052201;28;20028;-75
2021/04/26 11:24:32;;;;;;;4.40;1.65;;;17.60;29.90;;;;;;5036773;28;20113;-75
2021/04/26 11:27:07;;;;;;;3.90;1.40;;;18.30;30.00;;;;;;5048783;28;20415;-78
2021/04/26 11:29:33;;;;;;;4.38;1.70;;;19.20;28.80;;;;;;5051921;28;20045;-73
2021/04/26 11:32:07;;;;;;;3.10;1.40;;;19.70;28.40;;;;;;5049155;28;20538;-78
2021/04/26 11:34:48;;;;;;;4.13;1.50;;;19.90;27.10;;;;;;5049299;28;20044;-74
2021/04/26 11:37:24;;;;;;;4.50;1.25;;;19.60;26.60;;;;;;5048459;28;20051;-74
2021/04/26 11:39:53;;;;;;;3.58;1.60;;;18.30;27.60;;;;;;5065800;28;20029;-74
2021/04/26 11:42:21;;;;;;;4.05;2.13;;;17.50;28.50;;;;;;5068448;28;20036;-75
2021/04/26 11:44:48;;;;;;;6.15;2.00;;;17.30;28.70;;;;;;5068743;28;20450;-74
2021/04/26 11:47:16;;;;;;;5.45;1.70;;;17.80;29.50;;;;;;5054143;28;20138;-75
2021/04/26 11:49:46;;;;;;;5.78;1.75;;;17.80;29.30;;;;;;5068905;28;20041;-74
2021/04/26 11:52:23;;;;;;;4.50;1.75;;;18.30;29.40;;;;;;5066922;28;21032;-74
2021/04/26 11:55:05;;;;;;;5.82;1.65;;;18.80;29.30;;;;;;5060749;28;20047;-73
2021/04/26 11:57:55;;;;;;;2.88;1.60;;;19.10;28.50;;;;;;5047071;28;20115;-75
2021/04/26 12:00:25;;;;;;;3.63;1.95;;;19.80;28.50;;;;;;5045883;28;20728;-75
2021/04/26 12:02:54;;;;;;;4.75;1.70;;;20.20;27.20;;;;;;5055921;28;20029;-75
2021/04/26 12:05:26;;;;;;;4.57;1.67;;;19.30;27.30;;;;;;5045891;28;20028;-73
2021/04/26 12:07:52;;;;;;;2.60;1.65;;;19.10;28.50;;;;;;5050738;28;20032;-75
2021/04/26 12:10:26;;;;;;;5.47;1.45;;;19.60;29.30;;;;;;5048011;28;20025;-74
2021/04/26 12:13:00;;;;;;;3.15;1.48;;;19.90;27.30;;;;;;5046389;28;20035;-76
2021/04/26 12:15:26;;;;;;;2.85;1.60;;;19.20;27.40;;;;;;5043555;28;20450;-76
2021/04/26 12:17:56;;;;;;;3.17;1.70;;;18.80;28.80;;;;;;5047321;28;20110;-75
2021/04/26 12:20:27;;;;;;;4.82;1.73;;;18.30;28.00;;;;;;5047178;28;20021;-77
2021/04/26 12:22:59;;;;;;;5.53;2.13;;;17.60;28.10;;;;;;5064701;28;20119;-74
2021/04/26 12:25:34;;;;;;;5.50;1.80;;;17.30;29.40;;;;;;5047892;28;20036;-74
2021/04/26 12:28:05;;;;;;;3.88;1.85;;;17.60;30.70;;;;;;5050015;28;20029;-74
2021/04/26 12:30:43;;;;;;;4.90;1.52;;;18.00;30.30;;;;;;5047164;28;20471;-75
2021/04/26 12:33:24;;;;;;;3.35;1.67;;;18.80;30.30;;;;;;5045852;28;20025;-78
2021/04/26 12:35:50;;;;;;;3.63;1.77;;;18.60;28.10;;;;;;5045945;28;20091;-74
2021/04/26 12:38:16;;;;;;;4.25;1.65;;;17.70;28.00;;;;;;5045448;28;20013;-74
2021/04/26 12:40:42;;;;;;;6.00;1.88;;;16.90;29.40;;;;;;5047203;28;20120;-75
2021/04/26 12:43:10;;;;;;;3.58;1.65;;;16.90;29.30;;;;;;5048025;28;20029;-81
2021/04/26 12:45:39;;;;;;;4.05;1.70;;;16.50;30.00;;;;;;5047397;28;20029;-74
2021/04/26 12:48:10;;;;;;;5.07;1.73;;;16.40;30.10;;;;;;5046997;28;20025;-76
2021/04/26 12:50:45;;;;;;;5.40;2.38;;;16.10;30.70;;;;;;5047323;28;20044;-74
2021/04/26 12:53:25;;;;;;;2.83;2.03;;;16.80;29.90;;;;;;5047978;28;21157;-77
2021/04/26 12:56:00;;;;;;;2.70;1.67;;;17.30;30.10;;;;;;5049540;28;20037;-75
2021/04/26 12:58:36;;;;;;;2.38;1.55;;;17.90;30.00;;;;;;5056427;28;20041;-76
2021/04/26 13:01:23;;;;;;;3.88;2.15;;;18.40;29.30;;;;;;5061274;28;20569;-75
2021/04/26 13:03:49;;;;;;;4.97;1.77;;;18.40;29.50;;;;;;5054445;28;20021;-76